Time;durP1;ratioP1;P1;durP2;ratioP2;P2;SDS_P1;SDS_P2;PMS_P1;PMS_P2;Temp;Humidity;BMP_temperature;BMP_pressure;BME280_temperature;BME280_humidity;BME280_pressure;Samples;Min_cycle;Max_cycle;Signal;HPM_P1;HPM_P2
2022/09/27 00:01:42;;;;;;;0.73;0.30;;;;;;;18.95;100.00;94562.59;4971509;28;20443;-57
2022/09/27 00:04:11;;;;;;;0.47;0.30;;;;;;;19.44;100.00;94636.59;4971327;28;20438;-57
2022/09/27 00:06:39;;;;;;;0.40;0.27;;;;;;;19.51;100.00;94620.66;4970908;28;20491;-57
2022/09/27 00:09:09;;;;;;;0.40;0.30;;;;;;;19.59;100.00;94608.19;4971091;28;20530;-56
2022/09/27 00:11:41;;;;;;;0.50;0.50;;;;;;;19.39;100.00;94619.91;4970948;28;21018;-57
2022/09/27 00:14:12;;;;;;;0.40;0.30;;;;;;;19.08;100.00;94623.22;4970929;28;20430;-57
2022/09/27 00:16:42;;;;;;;0.50;0.50;;;;;;;19.18;100.00;94617.38;4971383;28;20431;-57
2022/09/27 00:19:13;;;;;;;0.83;0.47;;;;;;;19.39;100.00;94620.72;4970821;28;20436;-56
2022/09/27 00:21:43;;;;;;;0.50;0.30;;;;;;;19.50;100.00;94608.38;4970964;28;20929;-56
2022/09/27 00:24:13;;;;;;;0.40;0.20;;;;;;;19.19;100.00;94583.25;4971278;28;20435;-56
2022/09/27 00:26:42;;;;;;;0.70;0.70;;;;;;;18.98;100.00;94594.94;4970772;28;20430;-56
2022/09/27 00:29:11;;;;;;;0.47;0.30;;;;;;;18.39;100.00;94593.84;4970746;28;20445;-56
2022/09/27 00:31:40;;;;;;;0.60;0.40;;;;;;;18.67;100.00;94585.94;4970984;28;20472;-56
2022/09/27 00:34:16;;;;;;;0.60;0.57;;;;;;;18.00;100.00;94591.78;4970682;28;20828;-56
2022/09/27 00:36:44;;;;;;;1.50;1.07;;;;;;;18.41;100.00;94599.66;4970767;28;20431;-56
2022/09/27 00:39:13;;;;;;;0.40;0.30;;;;;;;18.72;100.00;94599.13;4970800;28;20829;-56
2022/09/27 00:41:44;;;;;;;0.40;0.30;;;;;;;18.86;100.00;94603.03;4970529;28;20863;-56
2022/09/27 00:44:58;;;;;;;0.50;0.50;;;;;;;18.92;100.00;94596.28;4970607;28;20434;-56
2022/09/27 00:47:33;;;;;;;0.50;0.50;;;;;;;18.91;100.00;94594.72;4992917;28;20451;-55
2022/09/27 00:50:08;;;;;;;0.40;0.30;;;;;;;18.54;100.00;94587.84;4970598;28;20446;-55
2022/09/27 00:52:43;;;;;;;0.47;0.27;;;;;;;18.54;100.00;94585.16;4970852;28;20835;-56
2022/09/27 00:55:16;;;;;;;0.40;0.30;;;;;;;18.79;100.00;94580.53;4970768;28;20438;-56
2022/09/27 00:57:48;;;;;;;0.47;0.30;;;;;;;19.08;100.00;94576.78;4970639;28;20830;-56
2022/09/27 01:00:17;;;;;;;0.40;0.30;;;;;;;19.06;100.00;94577.13;4970855;28;20431;-56
2022/09/27 01:02:49;;;;;;;0.40;0.20;;;;;;;18.94;100.00;94571.78;4969246;28;20423;-56
2022/09/27 01:05:20;;;;;;;0.50;0.30;;;;;;;18.60;100.00;94562.31;4970547;28;20443;-56
2022/09/27 01:07:49;;;;;;;0.47;0.30;;;;;;;18.77;100.00;94554.03;4970364;28;20446;-56
2022/09/27 01:10:21;;;;;;;0.40;0.30;;;;;;;18.85;100.00;94541.59;4970275;28;20446;-56
2022/09/27 01:13:01;;;;;;;0.50;0.40;;;;;;;18.91;100.00;94543.72;4970234;28;20964;-56
2022/09/27 01:15:38;;;;;;;0.93;0.93;;;;;;;19.28;100.00;94548.94;4969897;28;20441;-56
2022/09/27 01:18:21;;;;;;;0.40;0.30;;;;;;;19.47;100.00;94538.38;4970196;28;20427;-56
2022/09/27 01:21:21;;;;;;;0.40;0.30;;;;;;;19.33;100.00;94524.50;4970737;28;20826;-55
2022/09/27 01:24:06;;;;;;;0.40;0.30;;;;;;;19.44;100.00;94525.63;4970332;28;20506;-56
2022/09/27 01:26:54;;;;;;;0.60;0.30;;;;;;;19.45;100.00;94517.22;4970369;28;20468;-55
2022/09/27 01:29:36;;;;;;;0.70;0.50;;;;;;;19.27;100.00;94531.28;4970104;28;20469;-55
2022/09/27 01:32:13;;;;;;;0.40;0.20;;;;;;;19.10;100.00;94526.19;4970195;28;20467;-56
2022/09/27 01:34:46;;;;;;;0.40;0.30;;;;;;;19.30;100.00;94522.53;4969939;28;20435;-56
2022/09/27 01:37:22;;;;;;;0.50;0.30;;;;;;;19.18;100.00;94530.63;4970003;28;20439;-55
2022/09/27 01:39:58;;;;;;;0.50;0.30;;;;;;;19.00;100.00;94532.81;4969798;28;20481;-56
2022/09/27 01:42:33;;;;;;;0.50;0.30;;;;;;;19.27;100.00;94529.38;4969773;28;20441;-56
2022/09/27 01:45:06;;;;;;;0.60;0.43;;;;;;;19.40;100.00;94535.50;4970122;28;20917;-55
2022/09/27 01:47:43;;;;;;;0.40;0.30;;;;;;;18.63;100.00;94540.19;4970070;28;20976;-56
2022/09/27 01:50:16;;;;;;;0.53;0.50;;;;;;;18.85;100.00;94525.47;4969779;28;20426;-56
2022/09/27 01:52:50;;;;;;;0.60;0.60;;;;;;;19.10;100.00;94516.22;4969789;28;20493;-56
2022/09/27 01:55:23;;;;;;;1.53;0.43;;;;;;;18.63;100.00;94529.44;4969691;28;20434;-55
2022/09/27 01:57:58;;;;;;;0.40;0.30;;;;;;;18.93;100.00;94528.03;4969637;28;20426;-55
2022/09/27 02:00:27;;;;;;;2.70;0.50;;;;;;;18.98;100.00;94517.06;4969816;28;20437;-56
2022/09/27 02:03:01;;;;;;;0.50;0.43;;;;;;;19.28;100.00;94505.94;4970020;28;20469;-56
2022/09/27 02:05:35;;;;;;;0.63;0.47;;;;;;;19.00;100.00;94503.28;4969569;28;20438;-56
2022/09/27 02:08:11;;;;;;;0.50;0.40;;;;;;;18.30;100.00;94411.53;4970059;28;20437;-56
2022/09/27 02:10:43;;;;;;;0.80;0.80;;;;;;;18.39;100.00;94511.44;4969438;28;20434;-56
2022/09/27 02:13:19;;;;;;;0.43;0.30;;;;;;;18.60;100.00;94508.66;4969352;28;20475;-56
2022/09/27 02:15:54;;;;;;;0.80;0.40;;;;;;;18.93;100.00;94505.75;4973356;28;20454;-56
2022/09/27 02:18:33;;;;;;;0.50;0.43;;;;;;;19.07;100.00;94505.38;4973016;28;20505;-56
2022/09/27 02:21:07;;;;;;;0.70;0.53;;;;;;;19.27;100.00;94488.28;4972896;28;20442;-56
2022/09/27 02:23:41;;;;;;;0.40;0.30;;;;;;;19.28;100.00;94479.09;4972848;28;20431;-56
2022/09/27 02:26:15;;;;;;;0.50;0.37;;;;;;;19.34;100.00;94475.03;4972741;28;20452;-56
2022/09/27 02:28:48;;;;;;;0.47;0.30;;;;;;;18.72;100.00;94403.16;4973210;28;20442;-56
2022/09/27 02:31:16;;;;;;;0.70;0.43;;;;;;;19.27;100.00;94472.97;4972941;28;20427;-56
2022/09/27 02:33:51;;;;;;;0.50;0.50;;;;;;;19.43;100.00;94478.38;4972558;28;20474;-56
2022/09/27 02:36:20;;;;;;;0.40;0.30;;;;;;;19.43;100.00;94465.72;4972902;28;20461;-56
2022/09/27 02:38:49;;;;;;;0.50;0.30;;;;;;;18.92;100.00;94419.06;4972775;28;20434;-56
2022/09/27 02:41:19;;;;;;;0.40;0.20;;;;;;;19.13;100.00;94482.50;4972360;28;20486;-56
2022/09/27 02:43:52;;;;;;;0.47;0.37;;;;;;;19.25;100.00;94467.13;4972800;28;20426;-56
2022/09/27 02:46:37;;;;;;;0.40;0.30;;;;;;;19.23;100.00;94471.28;4972575;28;20432;-56
2022/09/27 02:49:19;;;;;;;0.47;0.30;;;;;;;19.01;100.00;94462.66;4972342;28;20431;-56
2022/09/27 02:51:55;;;;;;;0.40;0.30;;;;;;;19.23;100.00;94464.00;4972108;28;20476;-56
2022/09/27 02:54:31;;;;;;;0.50;0.30;;;;;;;19.30;100.00;94466.88;4972162;28;20433;-56
2022/09/27 02:57:09;;;;;;;0.60;0.50;;;;;;;19.02;100.00;94464.22;4972066;28;20466;-56
2022/09/27 02:59:47;;;;;;;0.40;0.30;;;;;;;18.56;100.00;94480.16;4972541;28;20434;-56
2022/09/27 03:02:26;;;;;;;3.40;0.50;;;;;;;18.87;100.00;94464.19;4972042;28;20441;-56
2022/09/27 03:04:59;;;;;;;0.63;0.63;;;;;;;19.06;100.00;94452.78;4972401;28;20813;-56
2022/09/27 03:07:28;;;;;;;0.40;0.30;;;;;;;19.08;100.00;94466.66;4972143;28;20463;-56
2022/09/27 03:09:56;;;;;;;0.60;0.60;;;;;;;18.35;100.00;94464.97;4972331;28;20434;-56
2022/09/27 03:12:25;;;;;;;0.40;0.30;;;;;;;18.68;100.00;94462.13;4972101;28;20477;-56
2022/09/27 03:14:56;;;;;;;0.73;0.70;;;;;;;18.06;100.00;94453.72;4972055;28;20445;-56
2022/09/27 03:17:25;;;;;;;0.40;0.20;;;;;;;18.11;100.00;94434.72;4971971;28;20439;-56
2022/09/27 03:19:54;;;;;;;0.63;0.63;;;;;;;18.15;100.00;94444.44;4971802;28;20427;-56
2022/09/27 03:22:23;;;;;;;0.57;0.43;;;;;;;18.04;100.00;94447.88;4971939;28;20443;-56
2022/09/27 03:24:51;;;;;;;0.50;0.30;;;;;;;18.31;100.00;94445.31;4971759;28;20435;-56
2022/09/27 03:27:19;;;;;;;0.47;0.40;;;;;;;18.48;100.00;94438.91;4971620;28;20434;-56
2022/09/27 03:29:48;;;;;;;0.60;0.40;;;;;;;18.63;100.00;94440.88;4971834;28;20427;-56
2022/09/27 03:32:16;;;;;;;0.70;0.70;;;;;;;18.40;100.00;94418.31;4971809;28;20500;-56
2022/09/27 03:34:45;;;;;;;0.50;0.40;;;;;;;18.28;100.00;94351.31;4971624;28;20434;-56
2022/09/27 03:37:14;;;;;;;0.40;0.30;;;;;;;18.62;100.00;94401.72;4971542;28;20513;-56
2022/09/27 03:39:43;;;;;;;0.40;0.20;;;;;;;18.66;100.00;94440.22;4971770;28;20851;-56
2022/09/27 03:42:11;;;;;;;0.40;0.30;;;;;;;18.95;100.00;94431.78;4983372;28;20464;-56
2022/09/27 03:44:39;;;;;;;0.40;0.30;;;;;;;18.90;100.00;94437.41;4991371;28;20445;-56
2022/09/27 03:47:08;;;;;;;0.47;0.40;;;;;;;18.40;100.00;94386.91;4990634;28;20433;-56
2022/09/27 03:49:36;;;;;;;0.40;0.30;;;;;;;18.33;100.00;94426.19;4991167;28;20423;-56
2022/09/27 03:52:04;;;;;;;1.97;0.80;;;;;;;18.30;100.00;94427.63;4990539;28;20437;-56
2022/09/27 03:54:34;;;;;;;0.43;0.30;;;;;;;17.97;100.00;94369.94;4991045;28;20434;-56
2022/09/27 03:57:02;;;;;;;0.60;0.50;;;;;;;18.81;100.00;94420.69;4990570;28;20982;-56
2022/09/27 03:59:30;;;;;;;0.50;0.30;;;;;;;18.91;100.00;94417.50;4990723;28;20433;-56
2022/09/27 04:01:59;;;;;;;0.60;0.30;;;;;;;18.49;100.00;94421.72;4990487;28;20437;-56
2022/09/27 04:04:27;;;;;;;3.60;0.60;;;;;;;18.81;100.00;94436.00;4990425;28;20434;-56
2022/09/27 04:06:56;;;;;;;1.37;1.27;;;;;;;18.89;100.00;94411.72;4990641;28;20433;-56
2022/09/27 04:09:24;;;;;;;3.10;0.60;;;;;;;19.02;100.00;94410.50;4990839;28;20430;-55
2022/09/27 04:11:54;;;;;;;0.50;0.40;;;;;;;19.11;100.00;94414.94;4990592;28;20430;-56
2022/09/27 04:14:22;;;;;;;0.40;0.37;;;;;;;18.89;100.00;94416.28;4990485;28;20485;-56
2022/09/27 04:16:51;;;;;;;0.63;0.50;;;;;;;18.62;100.00;94379.50;4990537;28;20426;-56
2022/09/27 04:19:19;;;;;;;0.40;0.30;;;;;;;18.34;100.00;94419.72;4990676;28;20434;-56
2022/09/27 04:21:48;;;;;;;0.70;0.40;;;;;;;18.20;100.00;94413.91;4990518;28;20431;-56
2022/09/27 04:24:16;;;;;;;0.40;0.30;;;;;;;18.47;100.00;94417.81;4990607;28;20429;-56
2022/09/27 04:26:44;;;;;;;0.50;0.40;;;;;;;18.75;100.00;94430.09;4990466;28;20430;-56
2022/09/27 04:29:14;;;;;;;0.40;0.30;;;;;;;18.75;100.00;94456.94;4990481;28;20433;-56
2022/09/27 04:31:44;;;;;;;0.40;0.30;;;;;;;18.33;100.00;94456.47;4990208;28;20441;-56
2022/09/27 04:34:12;;;;;;;0.43;0.23;;;;;;;18.31;100.00;94434.56;4990241;28;20831;-56
2022/09/27 04:36:39;;;;;;;0.60;0.60;;;;;;;18.59;100.00;94429.28;4989816;28;20429;-56
2022/09/27 04:39:09;;;;;;;0.80;0.40;;;;;;;18.51;100.00;94432.88;4989802;28;20430;-55
2022/09/27 04:41:38;;;;;;;0.50;0.40;;;;;;;18.29;100.00;94374.34;4990071;28;20859;-56
2022/09/27 04:44:07;;;;;;;1.00;0.60;;;;;;;18.82;100.00;94414.19;4990420;28;20419;-55
2022/09/27 04:46:37;;;;;;;0.50;0.33;;;;;;;19.09;100.00;94417.97;4989798;28;20442;-56
2022/09/27 04:49:05;;;;;;;0.40;0.30;;;;;;;19.02;100.00;94399.00;4989838;28;20464;-55
2022/09/27 04:51:33;;;;;;;0.67;0.30;;;;;;;19.02;100.00;94402.44;4989711;28;20427;-55
2022/09/27 04:54:01;;;;;;;0.40;0.30;;;;;;;18.96;100.00;94409.19;4990037;28;20482;-55
2022/09/27 04:56:30;;;;;;;0.60;0.57;;;;;;;18.99;100.00;94407.75;4990035;28;20427;-55
2022/09/27 04:58:58;;;;;;;0.40;0.20;;;;;;;19.10;100.00;94416.84;4989747;28;20429;-55
2022/09/27 05:01:26;;;;;;;0.50;0.40;;;;;;;18.99;100.00;94424.63;4989746;28;20432;-55
2022/09/27 05:03:56;;;;;;;0.60;0.40;;;;;;;18.62;100.00;94419.75;4989827;28;20437;-56
2022/09/27 05:06:24;;;;;;;0.50;0.40;;;;;;;18.39;100.00;94417.53;4989763;28;20432;-56
2022/09/27 05:08:53;;;;;;;4.83;0.93;;;;;;;18.72;100.00;94398.56;4989491;28;20441;-56
2022/09/27 05:11:22;;;;;;;0.73;0.73;;;;;;;19.09;100.00;94404.53;4989901;28;20421;-56
2022/09/27 05:13:50;;;;;;;0.50;0.30;;;;;;;18.59;100.00;94375.59;4989670;28;20474;-56
2022/09/27 05:16:18;;;;;;;0.63;0.63;;;;;;;18.98;100.00;94433.81;4989780;28;20433;-56
2022/09/27 05:18:47;;;;;;;0.50;0.40;;;;;;;19.12;100.00;94416.50;4989351;28;20438;-55
2022/09/27 05:21:17;;;;;;;0.40;0.30;;;;;;;19.09;100.00;94417.19;4989555;28;20908;-55
2022/09/27 05:23:45;;;;;;;0.60;0.60;;;;;;;19.11;100.00;94415.72;4990077;28;20441;-55
2022/09/27 05:26:15;;;;;;;0.40;0.30;;;;;;;19.17;100.00;94402.81;4989324;28;20487;-55
2022/09/27 05:28:44;;;;;;;0.40;0.30;;;;;;;18.99;100.00;94394.31;4989425;28;20448;-55
2022/09/27 05:31:13;;;;;;;0.40;0.30;;;;;;;18.47;100.00;94254.88;4989668;28;20441;-56
2022/09/27 05:33:41;;;;;;;0.60;0.60;;;;;;;19.34;100.00;94411.34;4989075;28;20471;-56
2022/09/27 05:36:10;;;;;;;0.50;0.30;;;;;;;19.57;100.00;94406.16;4989408;28;20950;-56
2022/09/27 05:38:42;;;;;;;0.80;0.80;;;;;;;19.43;100.00;94377.03;4989639;28;20432;-56
2022/09/27 05:41:10;;;;;;;1.90;0.63;;;;;;;19.57;100.00;94379.28;4989046;28;20482;-56
2022/09/27 05:43:39;;;;;;;0.50;0.40;;;;;;;19.64;100.00;94357.94;4989101;28;20434;-56
2022/09/27 05:46:07;;;;;;;0.40;0.30;;;;;;;19.55;100.00;94397.69;4989632;28;20430;-56
2022/09/27 05:48:35;;;;;;;0.87;0.87;;;;;;;19.58;100.00;94415.81;4989805;28;20435;-56
2022/09/27 05:51:04;;;;;;;0.60;0.40;;;;;;;20.00;100.00;94411.41;4992041;28;20826;-57
2022/09/27 05:53:33;;;;;;;0.50;0.40;;;;;;;20.11;96.09;94412.41;4992364;28;20476;-56
2022/09/27 05:56:03;;;;;;;0.40;0.20;;;;;;;20.10;96.61;94412.78;4991709;28;20434;-57
2022/09/27 05:58:33;;;;;;;0.40;0.30;;;;;;;20.06;95.58;94390.41;4992307;28;20967;-57
2022/09/27 06:01:01;;;;;;;0.50;0.50;;;;;;;20.11;98.68;94412.41;4992156;28;20444;-56
2022/09/27 06:03:29;;;;;;;0.40;0.30;;;;;;;19.61;100.00;94415.88;4992648;28;20483;-57
2022/09/27 06:06:02;;;;;;;0.80;0.80;;;;;;;19.72;100.00;94396.53;4992322;28;20794;-57
2022/09/27 06:08:33;;;;;;;2.00;0.97;;;;;;;18.67;100.00;94228.97;4992212;28;20449;-56
2022/09/27 06:11:05;;;;;;;0.60;0.40;;;;;;;20.30;96.22;94408.25;4992561;28;20434;-57
2022/09/27 06:13:36;;;;;;;1.43;1.00;;;;;;;20.47;93.92;94405.13;4992226;28;20460;-57
2022/09/27 06:16:05;;;;;;;0.60;0.53;;;;;;;20.26;93.98;94403.56;4992592;28;20461;-57
2022/09/27 06:18:33;;;;;;;0.50;0.50;;;;;;;19.92;100.00;94403.53;4992499;28;20445;-57
2022/09/27 06:21:04;;;;;;;1.80;0.43;;;;;;;20.23;97.34;94409.66;4992246;28;20904;-56
2022/09/27 06:23:32;;;;;;;1.00;1.00;;;;;;;19.95;97.88;94414.38;4992023;28;20437;-57
2022/09/27 06:26:02;;;;;;;0.60;0.60;;;;;;;19.56;96.23;94329.34;4992050;28;20920;-57
2022/09/27 06:28:34;;;;;;;0.40;0.20;;;;;;;20.23;98.04;94411.56;4992329;28;20442;-56
2022/09/27 06:31:05;;;;;;;0.53;0.40;;;;;;;19.92;96.97;94416.97;4991930;28;20423;-56
2022/09/27 06:33:33;;;;;;;0.60;0.40;;;;;;;20.11;96.88;94417.03;4992253;28;20448;-56
2022/09/27 06:36:02;;;;;;;0.60;0.50;;;;;;;20.10;98.47;94421.63;4991930;28;20432;-56
2022/09/27 06:38:31;;;;;;;0.43;0.30;;;;;;;20.08;97.54;94410.44;4991641;28;20445;-56
2022/09/27 06:41:02;;;;;;;0.60;0.40;;;;;;;19.98;98.26;94413.69;4991653;28;20481;-56
2022/09/27 06:43:32;;;;;;;1.03;1.03;;;;;;;19.63;100.00;94415.53;4991741;28;20440;-56
2022/09/27 06:46:04;;;;;;;0.60;0.50;;;;;;;19.77;99.42;94405.13;4992030;28;20430;-56
2022/09/27 06:48:34;;;;;;;6.90;0.50;;;;;;;20.15;97.68;94415.97;4991655;28;20434;-56
2022/09/27 06:51:03;;;;;;;0.47;0.47;;;;;;;20.43;93.44;94401.59;4992137;28;20430;-56
2022/09/27 06:53:32;;;;;;;0.77;0.77;;;;;;;19.53;93.76;94270.94;4991488;28;20437;-56
2022/09/27 06:56:00;;;;;;;0.40;0.30;;;;;;;20.83;91.13;94413.59;4991487;28;20486;-55
2022/09/27 07:01:16;;;;;;;0.67;0.40;;;;;;;21.21;86.92;94399.31;4989994;28;20427;-54
2022/09/27 07:03:50;;;;;;;0.50;0.50;;;;;;;21.07;87.88;94415.25;4991454;28;20434;-55
2022/09/27 07:06:21;;;;;;;0.50;0.30;;;;;;;21.24;87.44;94411.31;4991442;28;20433;-54
2022/09/27 07:08:52;;;;;;;0.70;0.70;;;;;;;21.78;84.98;94413.78;4991258;28;20488;-54
2022/09/27 07:11:22;;;;;;;1.03;0.70;;;;;;;21.05;87.21;94436.31;4991432;28;20427;-54
2022/09/27 07:13:50;;;;;;;1.40;1.13;;;;;;;20.44;92.54;94416.63;4991353;28;20435;-54
2022/09/27 07:16:20;;;;;;;1.43;1.43;;;;;;;20.82;92.74;94419.34;4991612;28;20435;-56
2022/09/27 07:18:50;;;;;;;0.60;0.47;;;;;;;20.44;93.70;94422.78;4991373;28;20471;-54
2022/09/27 07:21:18;;;;;;;0.60;0.57;;;;;;;19.87;97.87;94414.56;4991305;28;20427;-54
2022/09/27 07:23:47;;;;;;;0.60;0.50;;;;;;;19.92;100.00;94423.13;4991518;28;20442;-54
2022/09/27 07:26:15;;;;;;;0.80;0.80;;;;;;;19.94;98.73;94431.63;4991055;28;20431;-60
2022/09/27 07:28:44;;;;;;;0.50;0.50;;;;;;;19.78;100.00;94416.66;4991124;28;20981;-56
2022/09/27 07:31:13;;;;;;;0.47;0.33;;;;;;;19.17;97.51;94295.38;4990999;28;20430;-56
2022/09/27 07:33:43;;;;;;;0.70;0.50;;;;;;;20.20;97.05;94429.16;4991099;28;20462;-56
2022/09/27 07:36:12;;;;;;;0.50;0.40;;;;;;;20.33;97.02;94421.00;4990802;28;20474;-56
2022/09/27 07:38:41;;;;;;;0.40;0.30;;;;;;;20.46;94.06;94411.66;4991141;28;20434;-56
2022/09/27 07:41:12;;;;;;;0.47;0.43;;;;;;;20.53;95.45;94419.88;4991007;28;21017;-56
2022/09/27 07:43:41;;;;;;;1.23;0.37;;;;;;;20.59;93.22;94400.41;4990680;28;20462;-56
2022/09/27 07:46:09;;;;;;;0.50;0.50;;;;;;;20.17;97.04;94421.00;4990888;28;20431;-56
2022/09/27 07:48:38;;;;;;;0.60;0.57;;;;;;;20.02;98.20;94411.84;4990469;28;20529;-56
2022/09/27 07:51:09;;;;;;;0.80;0.67;;;;;;;20.47;96.98;94415.91;4990989;28;20441;-57
2022/09/27 07:53:39;;;;;;;0.77;0.60;;;;;;;19.91;99.50;94405.44;4990915;28;20442;-58
2022/09/27 07:56:08;;;;;;;0.50;0.50;;;;;;;19.99;100.00;94417.13;4990371;28;20513;-57
2022/09/27 07:58:36;;;;;;;0.80;0.80;;;;;;;19.41;100.00;94395.41;4990662;28;20936;-56
2022/09/27 08:01:04;;;;;;;1.77;1.67;;;;;;;19.44;100.00;94420.81;4990991;28;20433;-56
2022/09/27 08:03:33;;;;;;;1.00;0.90;;;;;;;19.36;100.00;94368.00;4990572;28;20506;-55
2022/09/27 08:06:04;;;;;;;1.23;0.70;;;;;;;19.91;100.00;94413.50;4990577;28;20927;-56
2022/09/27 08:08:33;;;;;;;0.60;0.60;;;;;;;19.89;100.00;94391.56;4990757;28;20449;-56
2022/09/27 08:11:02;;;;;;;0.50;0.40;;;;;;;20.52;100.00;94396.78;4990170;28;20430;-56
2022/09/27 08:13:30;;;;;;;0.40;0.30;;;;;;;19.34;100.00;94309.22;4990109;28;20430;-59
2022/09/27 08:16:02;;;;;;;0.53;0.53;;;;;;;20.37;100.00;94395.72;4990324;28;20476;-56
2022/09/27 08:18:30;;;;;;;0.80;0.80;;;;;;;19.77;100.00;94382.81;4990088;28;20473;-55
2022/09/27 08:20:59;;;;;;;0.50;0.50;;;;;;;20.13;100.00;94383.28;4990175;28;20439;-60
2022/09/27 08:23:28;;;;;;;1.33;0.40;;;;;;;20.38;100.00;94401.88;4989961;28;20439;-57
2022/09/27 08:25:58;;;;;;;0.97;0.30;;;;;;;20.69;98.37;94361.38;4990051;28;20531;-58
2022/09/27 08:28:27;;;;;;;0.70;0.53;;;;;;;21.33;95.79;94399.16;4990417;28;20439;-57
2022/09/27 08:30:58;;;;;;;0.40;0.30;;;;;;;21.68;93.99;94382.00;4990179;28;21062;-57
2022/09/27 08:33:26;;;;;;;5.00;0.50;;;;;;;21.29;94.23;94414.50;4990365;28;20511;-56
2022/09/27 08:36:00;;;;;;;0.60;0.50;;;;;;;21.94;90.64;94395.53;4989728;28;20559;-56
2022/09/27 08:38:28;;;;;;;0.63;0.50;;;;;;;21.53;92.26;94405.25;4989683;28;20434;-57
2022/09/27 08:41:08;;;;;;;0.50;0.40;;;;;;;21.01;91.69;94232.66;4990020;28;20471;-57
2022/09/27 08:43:45;;;;;;;0.80;0.73;;;;;;;22.23;90.36;94372.44;4989854;28;20430;-57
2022/09/27 08:46:27;;;;;;;0.63;0.63;;;;;;;22.41;86.80;94366.13;4990260;28;20441;-57
2022/09/27 08:49:03;;;;;;;0.60;0.60;;;;;;;22.92;86.81;94371.00;4989956;28;20445;-58
2022/09/27 08:51:33;;;;;;;0.40;0.30;;;;;;;23.09;83.40;94367.72;4989766;28;20428;-57
2022/09/27 08:54:06;;;;;;;0.70;0.70;;;;;;;22.72;84.64;94365.75;4989844;28;21021;-57
2022/09/27 08:56:37;;;;;;;0.70;0.43;;;;;;;22.84;85.78;94356.66;4989545;28;20474;-57
2022/09/27 08:59:13;;;;;;;0.40;0.30;;;;;;;22.42;84.85;94340.69;4989824;28;20441;-57
2022/09/27 09:01:42;;;;;;;0.40;0.30;;;;;;;22.90;84.01;94351.66;4989537;28;20431;-57
2022/09/27 09:04:12;;;;;;;0.50;0.50;;;;;;;22.63;83.73;94351.00;4989866;28;20459;-58
2022/09/27 09:06:45;;;;;;;1.17;1.07;;;;;;;22.60;85.64;94347.06;4989701;28;20438;-58
2022/09/27 09:09:28;;;;;;;0.53;0.30;;;;;;;22.63;85.90;94338.28;4989768;28;20804;-58
2022/09/27 09:15:03;;;;;;;0.60;0.50;;;;;;;22.34;84.47;94324.78;4993353;28;20445;-57
2022/09/27 09:17:52;;;;;;;0.70;0.70;;;;;;;22.77;84.01;94336.88;4989804;28;20423;-58
2022/09/27 09:20:34;;;;;;;0.40;0.30;;;;;;;22.97;82.74;94332.84;4989891;28;20458;-59
2022/09/27 09:23:36;;;;;;;0.50;0.40;;;;;;;23.10;83.27;94339.50;4989298;28;20442;-58
2022/09/27 09:26:13;;;;;;;0.40;0.30;;;;;;;23.08;80.53;94333.72;4993063;28;20926;-58
2022/09/27 09:28:57;;;;;;;0.40;0.27;;;;;;;23.14;80.56;94297.09;4993404;28;20462;-59
2022/09/27 09:31:34;;;;;;;0.70;0.50;;;;;;;22.73;83.04;94307.91;4993280;28;20433;-59
2022/09/27 09:34:14;;;;;;;1.50;1.40;;;;;;;22.25;87.96;94318.88;4992762;28;20944;-59
2022/09/27 09:36:46;;;;;;;1.03;1.00;;;;;;;22.30;90.41;94308.53;4992495;28;20492;-59
2022/09/27 09:39:19;;;;;;;1.53;1.00;;;;;;;22.72;87.98;94300.94;4992868;28;20431;-58
2022/09/27 09:42:02;;;;;;;0.60;0.60;;;;;;;22.91;85.02;94281.06;4993036;28;20939;-57
2022/09/27 09:44:39;;;;;;;0.77;0.63;;;;;;;22.33;87.40;94274.63;4992650;28;20420;-58
2022/09/27 09:47:15;;;;;;;0.67;0.67;;;;;;;23.01;85.22;94293.13;4992611;28;20441;-58
2022/09/27 09:49:47;;;;;;;1.00;0.80;;;;;;;22.50;87.45;94303.75;4992569;28;20430;-58
2022/09/27 09:52:19;;;;;;;1.47;1.47;;;;;;;22.64;84.17;94304.69;4992739;28;20441;-58
2022/09/27 09:54:53;;;;;;;1.03;0.60;;;;;;;22.97;82.90;94303.13;4992908;28;20457;-58
2022/09/27 09:57:27;;;;;;;0.40;0.40;;;;;;;23.20;81.62;94290.19;4992555;28;20486;-58
2022/09/27 10:00:01;;;;;;;0.60;0.50;;;;;;;23.13;82.59;94280.09;4992790;28;20911;-57
2022/09/27 10:02:34;;;;;;;0.40;0.30;;;;;;;23.56;81.05;94286.63;4992212;28;20442;-57
2022/09/27 10:05:04;;;;;;;0.90;0.70;;;;;;;23.83;78.78;94277.16;4992399;28;20427;-57
2022/09/27 10:07:38;;;;;;;0.60;0.60;;;;;;;23.89;77.76;94247.81;4992139;28;20534;-56
2022/09/27 10:10:10;;;;;;;0.40;0.30;;;;;;;23.93;76.41;94286.50;4992183;28;20484;-57
2022/09/27 10:12:39;;;;;;;0.50;0.50;;;;;;;24.00;77.14;94273.00;4992023;28;20455;-56
2022/09/27 10:15:15;;;;;;;1.63;0.40;;;;;;;23.62;76.20;94195.88;4992455;28;20449;-56
2022/09/27 10:17:49;;;;;;;0.90;0.90;;;;;;;24.06;76.97;94263.34;4992385;28;20863;-56
2022/09/27 10:20:25;;;;;;;1.40;0.57;;;;;;;24.12;73.10;94251.03;4992260;28;20439;-56
2022/09/27 10:22:58;;;;;;;0.40;0.40;;;;;;;24.35;70.89;94242.63;4991763;28;20956;-56
2022/09/27 10:25:47;;;;;;;0.50;0.47;;;;;;;24.68;69.68;94247.75;4992074;28;20434;-56
2022/09/27 10:28:32;;;;;;;0.50;0.30;;;;;;;24.35;70.08;94227.16;4992104;28;20443;-56
2022/09/27 10:31:05;;;;;;;0.67;0.67;;;;;;;23.87;71.08;94233.88;4991866;28;20826;-55
2022/09/27 10:33:34;;;;;;;0.50;0.37;;;;;;;23.96;70.77;94229.66;4991015;28;20439;-56
2022/09/27 10:36:03;;;;;;;1.33;0.50;;;;;;;23.90;70.85;94227.72;4972080;28;20474;-55
2022/09/27 10:38:33;;;;;;;0.40;0.40;;;;;;;24.41;68.46;94214.78;4972443;28;20933;-56
2022/09/27 10:41:17;;;;;;;0.40;0.30;;;;;;;24.53;68.82;94216.38;4972393;28;20478;-56
2022/09/27 10:43:46;;;;;;;0.60;0.57;;;;;;;24.48;68.05;94205.91;4971936;28;20809;-56
2022/09/27 10:46:26;;;;;;;0.60;0.50;;;;;;;24.74;66.93;94219.13;4972495;28;20442;-56
2022/09/27 10:49:18;;;;;;;0.40;0.30;;;;;;;24.69;66.35;94184.28;4972455;28;20440;-56
2022/09/27 10:51:51;;;;;;;0.70;0.53;;;;;;;24.29;66.30;94163.69;4972594;28;20512;-56
2022/09/27 10:54:21;;;;;;;0.40;0.30;;;;;;;24.78;64.78;94214.50;4972193;28;20946;-56
2022/09/27 10:56:58;;;;;;;0.40;0.20;;;;;;;25.36;63.83;94197.06;4972024;28;20476;-59
2022/09/27 10:59:30;;;;;;;0.40;0.30;;;;;;;24.96;63.04;94196.31;4972362;28;20436;-58
2022/09/27 11:02:00;;;;;;;0.50;0.40;;;;;;;24.86;63.18;94212.56;4972328;28;20440;-58
2022/09/27 11:04:31;;;;;;;0.50;0.30;;;;;;;25.32;63.05;94205.22;4972019;28;20527;-58
2022/09/27 11:07:14;;;;;;;0.40;0.30;;;;;;;25.27;63.47;94185.84;4971860;28;20941;-58
2022/09/27 11:09:48;;;;;;;2.93;0.30;;;;;;;25.38;63.95;94205.59;4972097;28;20499;-58
2022/09/27 11:12:19;;;;;;;0.57;0.40;;;;;;;25.46;63.11;94183.53;4971953;28;20830;-58
2022/09/27 11:14:56;;;;;;;0.40;0.30;;;;;;;25.04;62.21;94187.03;4972314;28;20453;-58
2022/09/27 11:17:39;;;;;;;0.40;0.30;;;;;;;24.86;63.27;94199.03;4971949;28;20479;-57
2022/09/27 11:20:29;;;;;;;0.40;0.30;;;;;;;24.95;62.84;94204.81;4971702;28;20433;-57
2022/09/27 11:23:14;;;;;;;0.50;0.40;;;;;;;24.74;63.65;94212.94;4971843;28;20944;-57
2022/09/27 11:25:56;;;;;;;0.40;0.30;;;;;;;24.70;64.53;94204.00;4971935;28;20434;-57
2022/09/27 11:28:36;;;;;;;0.50;0.30;;;;;;;25.14;62.81;94199.03;4971696;28;20952;-56
2022/09/27 11:31:13;;;;;;;0.40;0.30;;;;;;;25.03;62.81;94192.81;4971637;28;20427;-56
2022/09/27 11:34:00;;;;;;;0.40;0.27;;;;;;;24.99;62.98;94198.28;4971602;28;20425;-56
2022/09/27 11:36:42;;;;;;;0.40;0.40;;;;;;;24.85;62.94;94167.66;4971279;28;20820;-56
2022/09/27 11:39:19;;;;;;;0.40;0.30;;;;;;;24.88;62.83;94200.19;4971584;28;20435;-57
2022/09/27 11:42:06;;;;;;;0.40;0.20;;;;;;;25.27;63.13;94205.63;4971427;28;20440;-57
2022/09/27 11:44:50;;;;;;;0.40;0.30;;;;;;;25.27;60.37;94205.63;4971520;28;20461;-57
2022/09/27 11:47:48;;;;;;;0.40;0.20;;;;;;;25.38;61.81;94202.88;4970429;28;20864;-57
2022/09/27 11:50:46;;;;;;;0.40;0.30;;;;;;;25.36;60.65;94192.41;4971626;28;20493;-57
2022/09/27 11:53:28;;;;;;;0.40;0.30;;;;;;;24.80;63.35;94189.72;4971636;28;20801;-57
2022/09/27 11:56:07;;;;;;;1.17;0.60;;;;;;;24.86;64.96;94190.91;4971435;28;20433;-57
2022/09/27 11:58:47;;;;;;;0.90;0.60;;;;;;;24.70;65.71;94185.03;4971118;28;20487;-57
2022/09/27 12:01:28;;;;;;;0.50;0.40;;;;;;;24.55;66.26;94166.06;4971585;28;20436;-57